Sanya Phoenix

Airport
ICAO code: 
ZJSY
Summary
ICAO Region: 
APAC
Territory: 
Location: 
Sanya, Hainan,
Serving: 
Sanya
Coordinates: 
Aerial View: 
18° 18' 14.144" N, 109° 24' 43.759" E
Metar
Observation
ZJSY 020800Z 13002MPS 080V200 CAVOK 27/10 Q1016 NOSIG
Station
Sanya/Fenghuang
Date/Time
2021-12-02 08:00:00
Wind direction
130°
Lowest cloud amount
clouds and visibility OK
Temperature
27°C
Dew point
10°C
Humidity
34%
QNH
1016 hPa
Weather condition
n/a

Description

Sanya Phoenix International Airport is an airport in Sanya, Hainan, People’s Republic of China (IATA: SYX). It is located about 15 km northwest of the city center.

Climatology

Tropical Monsoon climate (Köppen climate classification Am) - monthly mean temperatures above 18°C in every month of the year and features wet and dry seasons.

Runways

Designator Length Width Surface Rops
8/26 3400 45 CON Yes/Yes
Airport map: 
Aerial View: 

SKYbrary Partners:

Safety knowledge contributed by: